createdAt,value
2023-04-01T00:00:43.113Z,9.49
2023-04-01T00:02:27.992Z,9.52
2023-04-01T00:04:03.178Z,9.50
2023-04-01T00:05:37.135Z,9.50
2023-04-01T00:07:12.466Z,9.51
2023-04-01T00:08:57.866Z,9.52
2023-04-01T00:10:21.651Z,9.53
2023-04-01T00:11:46.332Z,9.53
2023-04-01T00:13:31.202Z,9.54
2023-04-01T00:15:16.548Z,9.54
2023-04-01T00:16:46.119Z,9.55
2023-04-01T00:18:08.394Z,9.57
2023-04-01T00:19:33.046Z,9.54
2023-04-01T00:21:16.735Z,9.51
2023-04-01T00:22:57.515Z,9.49
2023-04-01T00:24:42.624Z,9.48
2023-04-01T00:26:36.660Z,9.51
2023-04-01T00:28:00.680Z,9.47
2023-04-01T00:29:34.122Z,9.47
2023-04-01T00:31:07.835Z,9.45
2023-04-01T00:32:40.916Z,9.42
2023-04-01T00:34:29.076Z,9.38
2023-04-01T00:35:53.434Z,9.35
2023-04-01T00:37:26.552Z,9.34
2023-04-01T00:38:55.485Z,9.38
2023-04-01T00:40:31.247Z,9.39
2023-04-01T00:42:05.060Z,9.38
2023-04-01T00:43:38.399Z,9.39
2023-04-01T00:45:23.682Z,9.38
2023-04-01T00:46:55.630Z,9.36
2023-04-01T00:48:35.761Z,9.36
2023-04-01T00:50:21.912Z,9.38
2023-04-01T00:52:16.674Z,9.39
2023-04-01T00:53:52.985Z,9.41
2023-04-01T00:55:26.354Z,9.41
2023-04-01T00:56:58.865Z,9.41
2023-04-01T00:58:34.714Z,9.44
2023-04-01T01:00:10.494Z,9.44
2023-04-01T01:01:32.365Z,9.41
2023-04-01T01:03:13.807Z,9.41
2023-04-01T01:05:02.083Z,9.40
2023-04-01T01:06:42.868Z,9.38
2023-04-01T01:08:07.153Z,9.38
2023-04-01T01:09:49.637Z,9.37
2023-04-01T01:11:25.307Z,9.38
2023-04-01T01:13:01.569Z,9.39
2023-04-01T01:14:35.046Z,9.39
2023-04-01T01:16:08.034Z,9.38
2023-04-01T01:17:41.791Z,9.36
2023-04-01T01:19:36.653Z,9.34
2023-04-01T01:21:21.742Z,9.35
2023-04-01T01:22:55.037Z,9.35
2023-04-01T01:24:40.351Z,9.36
2023-04-01T01:26:29.739Z,9.37
2023-04-01T01:28:15.179Z,9.36
2023-04-01T01:29:42.398Z,9.33
2023-04-01T01:31:27.623Z,9.27
2023-04-01T01:33:12.916Z,9.26
2023-04-01T01:35:00.273Z,9.31
2023-04-01T01:36:37.766Z,9.31
2023-04-01T01:38:25.171Z,9.30
2023-04-01T01:40:06.209Z,9.28
2023-04-01T01:42:00.635Z,9.23
2023-04-01T01:43:36.441Z,9.21
2023-04-01T01:45:21.302Z,9.17
2023-04-01T01:46:47.516Z,9.14
2023-04-01T01:48:20.922Z,9.14
2023-04-01T01:50:15.613Z,9.15
2023-04-01T01:51:47.036Z,9.17
2023-04-01T01:53:31.775Z,9.17
2023-04-01T01:55:06.019Z,9.16
2023-04-01T01:57:00.419Z,9.18
2023-04-01T01:58:47.545Z,9.18
2023-04-01T02:00:26.195Z,9.20
2023-04-01T02:02:04.274Z,9.23
2023-04-01T02:03:46.639Z,9.20
2023-04-01T02:05:10.711Z,9.18
2023-04-01T02:07:05.610Z,9.13
2023-04-01T02:08:39.094Z,9.07
2023-04-01T02:10:12.827Z,9.04
2023-04-01T02:11:58.097Z,9.04
2023-04-01T02:13:51.718Z,9.03
2023-04-01T02:15:45.620Z,9.04
2023-04-01T02:17:30.629Z,8.99
2023-04-01T02:19:11.587Z,9.03
2023-04-01T02:21:05.605Z,9.02
2023-04-01T02:22:50.476Z,8.99
2023-04-01T02:24:35.136Z,8.98
2023-04-01T02:26:12.390Z,8.99
2023-04-01T02:27:49.102Z,9.00
2023-04-01T02:29:31.053Z,8.92
2023-04-01T02:31:14.657Z,8.99
2023-04-01T02:33:00.231Z,8.97
2023-04-01T02:34:54.621Z,9.00
2023-04-01T02:36:44.908Z,8.97
2023-04-01T02:38:07.631Z,8.98
2023-04-01T02:39:43.975Z,8.96
2023-04-01T02:41:19.755Z,8.93
2023-04-01T02:42:53.571Z,8.92
2023-04-01T02:44:29.236Z,8.90
2023-04-01T02:46:02.957Z,8.89
2023-04-01T02:47:48.045Z,8.91
2023-04-01T02:49:21.724Z,8.89
2023-04-01T02:51:03.702Z,8.86
2023-04-01T02:52:49.786Z,8.85
2023-04-01T02:54:25.637Z,8.82
2023-04-01T02:56:03.726Z,8.82
2023-04-01T02:57:44.642Z,8.84
2023-04-01T02:59:20.325Z,8.84
2023-04-01T03:01:05.626Z,8.85
2023-04-01T03:02:38.782Z,8.87
2023-04-01T03:04:11.983Z,8.82
2023-04-01T03:05:58.995Z,8.80
2023-04-01T03:07:20.615Z,8.81
2023-04-01T03:09:16.626Z,8.79
2023-04-01T03:10:53.100Z,8.78
2023-04-01T03:12:26.552Z,8.77
2023-04-01T03:14:02.185Z,8.76
2023-04-01T03:15:25.880Z,8.75
2023-04-01T03:17:10.660Z,8.71
2023-04-01T03:19:04.441Z,8.67
2023-04-01T03:20:49.695Z,8.65
2023-04-01T03:22:22.890Z,8.72
2023-04-01T03:24:08.240Z,8.76
2023-04-01T03:25:44.347Z,8.75
2023-04-01T03:27:29.645Z,8.72
2023-04-01T03:29:03.528Z,8.69
2023-04-01T03:30:57.769Z,8.67
2023-04-01T03:32:35.085Z,8.64
2023-04-01T03:34:11.018Z,8.65
2023-04-01T03:35:53.743Z,8.66
2023-04-01T03:37:34.231Z,8.66
2023-04-01T03:39:07.859Z,8.67
2023-04-01T03:40:53.608Z,8.64
2023-04-01T03:44:28.748Z,8.62
2023-04-01T03:46:10.200Z,8.62
2023-04-01T03:47:32.059Z,8.60
2023-04-01T03:49:17.236Z,8.61
2023-04-01T03:51:01.203Z,8.60
2023-04-01T03:52:34.367Z,8.59
2023-04-01T03:54:16.266Z,8.63
2023-04-01T03:56:01.515Z,8.61
2023-04-01T03:57:42.547Z,8.61
2023-04-01T03:59:21.652Z,8.57
2023-04-01T04:01:02.662Z,8.55
2023-04-01T04:02:38.388Z,8.53
2023-04-01T04:04:23.252Z,8.56
2023-04-01T04:06:08.917Z,8.55
2023-04-01T04:07:44.716Z,8.53
2023-04-01T04:09:18.078Z,8.51
2023-04-01T04:10:47.324Z,8.49
2023-04-01T04:12:23.048Z,8.49
2023-04-01T04:14:04.627Z,8.41
2023-04-01T04:15:37.950Z,8.44
2023-04-01T04:17:24.920Z,8.41
2023-04-01T04:19:10.038Z,8.39
2023-04-01T04:20:52.643Z,8.37
2023-04-01T04:22:37.641Z,8.34
2023-04-01T04:24:12.717Z,8.34
2023-04-01T04:26:13.634Z,8.31
2023-04-01T04:27:54.684Z,8.27
2023-04-01T04:29:30.663Z,8.23
2023-04-01T04:31:17.475Z,8.22
2023-04-01T04:32:43.688Z,8.20
2023-04-01T04:34:29.219Z,8.16
2023-04-01T04:36:10.565Z,8.12
2023-04-01T04:37:45.875Z,8.10
2023-04-01T04:39:20.450Z,8.11
2023-04-01T04:41:14.659Z,8.12
2023-04-01T04:43:00.687Z,8.13
2023-04-01T04:44:51.645Z,8.14
2023-04-01T04:46:45.142Z,8.15
2023-04-01T04:48:21.093Z,8.14
2023-04-01T04:50:05.285Z,8.16
2023-04-01T04:51:48.641Z,8.15
2023-04-01T04:53:22.448Z,8.14
2023-04-01T04:55:07.281Z,8.12
2023-04-01T04:57:00.856Z,8.12
2023-04-01T04:58:36.304Z,8.14
2023-04-01T04:59:59.295Z,8.13
2023-04-01T05:01:44.277Z,8.10
2023-04-01T05:03:06.576Z,8.07
2023-04-01T05:04:40.468Z,8.05
2023-04-01T05:06:16.238Z,8.05
2023-04-01T05:08:10.653Z,8.05
2023-04-01T05:09:50.916Z,8.08
2023-04-01T05:11:36.136Z,8.09
2023-04-01T05:13:21.140Z,8.09
2023-04-01T05:15:06.246Z,8.08
2023-04-01T05:16:51.751Z,8.07
2023-04-01T05:18:27.902Z,8.06
2023-04-01T05:20:13.293Z,8.10
2023-04-01T05:21:54.067Z,8.14
2023-04-01T05:23:36.933Z,8.15
2023-04-01T05:25:08.013Z,8.11
2023-04-01T05:26:32.253Z,8.10
2023-04-01T05:28:08.139Z,8.12
2023-04-01T05:29:41.237Z,8.17
2023-04-01T05:31:11.697Z,8.18
2023-04-01T05:32:54.415Z,8.20
2023-04-01T05:34:27.443Z,8.25
2023-04-01T05:36:22.638Z,8.28
2023-04-01T05:38:08.735Z,8.31
2023-04-01T05:39:44.411Z,8.33
2023-04-01T05:41:38.619Z,8.31
2023-04-01T05:43:24.500Z,8.30
2023-04-01T05:45:04.874Z,8.31
2023-04-01T05:46:49.322Z,8.31
2023-04-01T05:48:42.206Z,8.33
2023-04-01T05:50:27.944Z,8.34
2023-04-01T05:52:09.338Z,8.35
2023-04-01T05:53:54.716Z,8.35
2023-04-01T05:55:48.632Z,8.35
2023-04-01T05:57:34.978Z,8.29
2023-04-01T05:59:05.101Z,8.32
2023-04-01T06:01:02.303Z,8.24
2023-04-01T06:02:54.776Z,8.33
2023-04-01T06:04:39.712Z,8.39
2023-04-01T06:06:24.878Z,8.41
2023-04-01T06:07:57.270Z,8.42
2023-04-01T06:09:33.077Z,8.35
2023-04-01T06:11:18.460Z,8.34
2023-04-01T06:12:51.973Z,8.42
2023-04-01T06:14:36.740Z,8.53
2023-04-01T06:16:21.526Z,8.59
2023-04-01T06:17:55.237Z,8.69
2023-04-01T06:19:22.386Z,8.79
2023-04-01T06:20:58.516Z,8.85
2023-04-01T06:22:31.877Z,8.90
2023-04-01T06:24:26.685Z,8.97
2023-04-01T06:26:08.728Z,8.99
2023-04-01T06:27:30.635Z,9.00
2023-04-01T06:29:15.743Z,9.03
2023-04-01T06:31:01.232Z,9.09
2023-04-01T06:32:30.722Z,9.06
2023-04-01T06:34:25.628Z,9.13
2023-04-01T06:35:52.095Z,9.14
2023-04-01T06:37:45.491Z,9.12
2023-04-01T06:39:34.947Z,9.09
2023-04-01T06:41:20.063Z,9.17
2023-04-01T06:43:05.567Z,9.17
2023-04-01T06:44:57.810Z,9.20
2023-04-01T06:46:49.940Z,9.22
2023-04-01T06:48:32.889Z,9.20
2023-04-01T06:50:24.946Z,9.19
2023-04-01T06:51:49.174Z,9.24
2023-04-01T06:53:41.264Z,9.20
2023-04-01T06:56:11.552Z,9.24
2023-04-01T06:57:56.783Z,9.27
2023-04-01T06:59:33.318Z,9.32
2023-04-01T07:01:15.086Z,9.36
2023-04-01T07:02:53.025Z,9.41
2023-04-01T07:04:26.590Z,9.37
2023-04-01T07:06:11.905Z,9.36
2023-04-01T07:07:55.509Z,9.36
2023-04-01T07:09:28.713Z,9.39
2023-04-01T07:11:20.629Z,9.44
2023-04-01T07:13:29.584Z,9.45
2023-04-01T07:15:13.702Z,9.42
2023-04-01T07:16:59.071Z,9.41
2023-04-01T07:18:34.511Z,9.37
2023-04-01T07:19:58.331Z,9.40
2023-04-01T07:21:43.715Z,9.45
2023-04-01T07:23:24.074Z,9.50
2023-04-01T07:25:10.773Z,9.52
2023-04-01T07:26:55.777Z,9.43
2023-04-01T07:28:33.015Z,9.55
2023-04-01T07:30:11.512Z,9.55
2023-04-01T07:31:44.771Z,9.59
2023-04-01T07:33:06.558Z,9.61
2023-04-01T07:34:42.960Z,9.61
2023-04-01T07:36:24.393Z,9.60
2023-04-01T07:38:09.426Z,9.61
2023-04-01T07:39:31.037Z,9.59
2023-04-01T07:41:13.567Z,9.56
2023-04-01T07:43:07.699Z,9.58
2023-04-01T07:45:02.650Z,9.55
2023-04-01T07:46:52.678Z,9.57
2023-04-01T07:48:33.938Z,9.62
2023-04-01T07:49:57.802Z,9.64
2023-04-01T07:51:28.686Z,9.64
2023-04-01T07:52:57.644Z,9.64
2023-04-01T07:54:21.737Z,9.65
2023-04-01T07:55:50.868Z,9.65
2023-04-01T07:57:46.666Z,9.70
2023-04-01T07:59:19.949Z,9.78
2023-04-01T08:01:13.102Z,9.80
2023-04-01T08:02:58.465Z,9.81
2023-04-01T08:04:43.720Z,9.83
2023-04-01T08:06:20.587Z,9.87
2023-04-01T08:08:03.780Z,9.92
2023-04-01T08:10:05.639Z,10.01
2023-04-01T08:12:05.716Z,10.12
2023-04-01T08:14:06.523Z,10.25
2023-04-01T08:15:50.762Z,10.32
2023-04-01T08:17:56.666Z,10.32
2023-04-01T08:19:50.626Z,10.32
2023-04-01T08:21:34.999Z,10.27
2023-04-01T08:23:18.628Z,10.17
2023-04-01T08:25:03.620Z,10.10
2023-04-01T08:26:54.716Z,10.15
2023-04-01T08:28:39.670Z,10.12
2023-04-01T08:30:20.527Z,10.14
2023-04-01T08:31:52.431Z,10.13
2023-04-01T08:33:38.160Z,10.14
2023-04-01T08:35:26.774Z,10.15
2023-04-01T08:36:50.814Z,10.15
2023-04-01T08:38:26.967Z,10.18
2023-04-01T08:40:00.520Z,10.19
2023-04-01T08:41:36.286Z,10.19
2023-04-01T08:43:20.110Z,10.26
2023-04-01T08:45:07.222Z,10.36
2023-04-01T08:46:52.331Z,10.47
2023-04-01T08:48:45.807Z,10.53
2023-04-01T08:50:42.597Z,10.49
2023-04-01T08:52:44.627Z,10.49
2023-04-01T08:54:39.632Z,10.45
2023-04-01T08:56:11.258Z,10.44
2023-04-01T08:57:54.726Z,10.45
2023-04-01T09:00:16.597Z,10.48
2023-04-01T09:02:17.374Z,10.52
2023-04-01T09:04:09.377Z,10.56
2023-04-01T09:05:42.532Z,10.59
2023-04-01T09:07:35.858Z,10.59
2023-04-01T09:09:21.105Z,10.56
2023-04-01T09:10:48.002Z,10.60
2023-04-01T09:13:08.717Z,10.57
2023-04-01T09:14:49.401Z,10.54
2023-04-01T09:16:45.603Z,10.47
2023-04-01T09:18:21.571Z,10.39
2023-04-01T09:20:16.630Z,10.39
2023-04-01T09:22:03.675Z,10.41
2023-04-01T09:23:57.635Z,10.34
2023-04-01T09:25:45.724Z,10.27
2023-04-01T09:27:18.921Z,10.25
2023-04-01T09:29:01.635Z,10.27
2023-04-01T09:30:47.608Z,10.24
2023-04-01T09:32:23.463Z,10.19
2023-04-01T09:34:19.608Z,10.16
2023-04-01T09:36:06.178Z,10.13
2023-04-01T09:37:52.199Z,10.14
2023-04-01T09:39:28.589Z,10.12
2023-04-01T09:40:53.096Z,10.17
2023-04-01T09:42:43.628Z,10.25
2023-04-01T09:44:19.578Z,10.34
2023-04-01T09:46:08.715Z,10.45
2023-04-01T09:47:50.757Z,10.58
2023-04-01T09:49:43.826Z,10.68
2023-04-01T09:51:13.837Z,10.75
2023-04-01T09:52:59.662Z,10.87
2023-04-01T09:54:45.763Z,11.05
2023-04-01T09:56:26.640Z,11.17
2023-04-01T09:58:11.716Z,11.14
2023-04-01T10:00:26.335Z,11.19
2023-04-01T10:02:14.730Z,11.22
2023-04-01T10:03:50.573Z,11.26
2023-04-01T10:05:21.377Z,11.28
2023-04-01T10:07:15.651Z,11.33
2023-04-01T10:09:04.781Z,11.30
2023-04-01T10:10:52.006Z,11.20
2023-04-01T10:12:45.941Z,11.10
2023-04-01T10:14:31.081Z,10.98
2023-04-01T10:16:17.774Z,10.94
2023-04-01T10:17:51.694Z,10.93
2023-04-01T10:19:47.634Z,10.97
2023-04-01T10:21:21.672Z,10.85
2023-04-01T10:23:06.973Z,10.74
2023-04-01T10:24:41.356Z,10.64
2023-04-01T10:26:10.746Z,10.55
2023-04-01T10:27:45.583Z,10.46
2023-04-01T10:29:37.884Z,10.39
2023-04-01T10:31:09.687Z,10.38
2023-04-01T10:32:43.648Z,10.35
2023-04-01T10:34:25.654Z,10.29
2023-04-01T10:35:59.665Z,10.23
2023-04-01T10:37:49.121Z,10.23
2023-04-01T10:39:32.663Z,10.24
2023-04-01T10:41:17.233Z,10.23
2023-04-01T10:43:09.681Z,10.24
2023-04-01T10:44:58.956Z,10.34
2023-04-01T10:46:50.626Z,10.43
2023-04-01T10:48:35.296Z,10.49
2023-04-01T10:50:21.453Z,10.52
2023-04-01T10:51:51.154Z,10.57
2023-04-01T10:53:36.748Z,10.64
2023-04-01T10:56:09.610Z,10.72
2023-04-01T10:58:16.115Z,10.80
2023-04-01T11:00:16.612Z,10.87
2023-04-01T11:02:17.689Z,10.89
2023-04-01T11:04:05.822Z,10.86
2023-04-01T11:05:46.716Z,10.83
2023-04-01T11:07:50.491Z,10.79
2023-04-01T11:09:53.618Z,10.70
2023-04-01T11:11:39.873Z,10.79
2023-04-01T11:13:21.853Z,10.83
2023-04-01T11:15:07.361Z,10.84
2023-04-01T11:16:43.916Z,10.82
2023-04-01T11:18:30.257Z,10.79
2023-04-01T11:20:15.733Z,10.66
2023-04-01T11:22:08.773Z,10.57
2023-04-01T11:24:05.466Z,10.42
2023-04-01T11:25:49.757Z,10.29
2023-04-01T11:27:50.459Z,10.24
2023-04-01T11:29:36.533Z,10.09
2023-04-01T11:31:19.661Z,10.02
2023-04-01T11:33:11.712Z,9.96
2023-04-01T11:35:01.262Z,9.90
2023-04-01T11:36:52.875Z,9.87
2023-04-01T11:38:49.632Z,9.88
2023-04-01T11:40:46.930Z,9.91
2023-04-01T11:42:27.198Z,9.97
2023-04-01T11:44:10.175Z,10.01
2023-04-01T11:45:58.017Z,10.12
2023-04-01T11:47:38.834Z,10.26
2023-04-01T11:49:23.955Z,10.43
2023-04-01T11:51:17.774Z,10.55
2023-04-01T11:52:48.699Z,10.66
2023-04-01T11:54:21.652Z,10.69
2023-04-01T11:56:06.557Z,10.70
2023-04-01T11:58:00.738Z,10.71
2023-04-01T11:59:35.713Z,10.74
2023-04-01T12:01:09.612Z,10.80
2023-04-01T12:02:43.271Z,10.80
2023-04-01T12:04:28.702Z,10.79
2023-04-01T12:06:13.688Z,10.88
2023-04-01T12:07:37.611Z,11.01
2023-04-01T12:09:22.446Z,11.14
2023-04-01T12:11:03.073Z,11.19
2023-04-01T12:12:54.215Z,11.16
2023-04-01T12:16:45.623Z,10.98
2023-04-01T12:18:26.599Z,10.96
2023-04-01T12:20:00.442Z,10.90
2023-04-01T12:21:33.738Z,10.81
2023-04-01T12:23:15.066Z,10.75
2023-04-01T12:24:50.511Z,10.60
2023-04-01T12:26:12.515Z,10.50
2023-04-01T12:27:45.841Z,10.45
2023-04-01T12:29:39.349Z,10.41
2023-04-01T12:31:13.157Z,10.52
2023-04-01T12:32:42.399Z,10.54
2023-04-01T12:34:04.524Z,10.51
2023-04-01T12:35:35.794Z,10.53
2023-04-01T12:37:11.837Z,10.55
2023-04-01T12:38:57.506Z,10.56
2023-04-01T12:40:42.496Z,10.49
2023-04-01T12:42:06.576Z,10.53
2023-04-01T12:43:51.489Z,10.50
2023-04-01T12:45:24.452Z,10.52
2023-04-01T12:46:48.362Z,10.51
2023-04-01T12:48:21.871Z,10.47
2023-04-01T12:49:58.384Z,10.45
2023-04-01T12:51:41.617Z,10.43
2023-04-01T12:53:17.245Z,10.40
2023-04-01T12:55:01.229Z,10.34
2023-04-01T12:56:22.661Z,10.33
2023-04-01T12:58:17.646Z,10.31
2023-04-01T13:00:04.204Z,10.30
2023-04-01T13:01:30.622Z,10.34
2023-04-01T13:03:04.245Z,10.37
2023-04-01T13:04:58.655Z,10.41
2023-04-01T13:06:34.985Z,10.42
2023-04-01T13:08:20.385Z,10.33
2023-04-01T13:09:53.991Z,10.42
2023-04-01T13:11:29.611Z,10.38
2023-04-01T13:12:53.616Z,10.39
2023-04-01T13:14:47.642Z,10.38
2023-04-01T13:16:09.846Z,10.31
2023-04-01T13:18:03.242Z,10.39
2023-04-01T13:21:55.269Z,10.35
2023-04-01T13:23:20.091Z,10.18
2023-04-01T13:24:48.956Z,10.35
2023-04-01T13:26:36.672Z,10.34
2023-04-01T13:28:09.873Z,10.33
2023-04-01T13:29:54.872Z,10.32
2023-04-01T13:33:42.063Z,10.26
2023-04-01T13:35:27.581Z,10.23
2023-04-01T13:37:12.512Z,10.16
2023-04-01T13:38:53.137Z,10.14
2023-04-01T13:40:37.965Z,10.11
2023-04-01T13:42:13.870Z,10.11
2023-04-01T13:43:58.800Z,10.11
2023-04-01T13:45:53.616Z,10.06
2023-04-01T13:47:27.497Z,10.03
2023-04-01T13:49:12.638Z,10.04
2023-04-01T13:50:56.596Z,10.01
2023-04-01T13:52:41.620Z,9.98
2023-04-01T13:54:17.842Z,9.95
2023-04-01T13:55:51.481Z,9.95
2023-04-01T13:57:35.862Z,9.95
2023-04-01T13:59:12.192Z,9.93
2023-04-01T14:01:04.681Z,9.95
2023-04-01T14:02:38.023Z,9.95
2023-04-01T14:04:13.965Z,9.93
2023-04-01T14:05:54.918Z,9.97
2023-04-01T14:07:19.189Z,10.00
2023-04-01T14:08:42.785Z,10.02
2023-04-01T14:10:11.625Z,10.01
2023-04-01T14:12:01.743Z,9.98
2023-04-01T14:13:38.207Z,9.95
2023-04-01T14:15:23.068Z,9.94
2023-04-01T14:16:56.643Z,9.94
2023-04-01T14:18:29.884Z,9.92
2023-04-01T14:20:04.431Z,9.94
2023-04-01T14:21:37.648Z,9.94
2023-04-01T14:23:11.161Z,9.95
2023-04-01T14:24:46.695Z,9.94
2023-04-01T14:26:22.771Z,9.96
2023-04-01T14:27:55.971Z,9.94
2023-04-01T14:29:29.418Z,9.94
2023-04-01T14:30:53.524Z,9.95
2023-04-01T14:32:34.354Z,9.98
2023-04-01T14:34:08.167Z,10.01
2023-04-01T14:35:30.423Z,10.02
2023-04-01T14:36:59.265Z,10.03
2023-04-01T14:38:29.047Z,10.02
2023-04-01T14:40:04.602Z,9.94
2023-04-01T14:41:39.114Z,9.83
2023-04-01T14:43:01.211Z,9.88
2023-04-01T14:44:25.936Z,9.82
2023-04-01T14:45:47.832Z,9.78
2023-04-01T14:47:23.898Z,9.75
2023-04-01T14:49:08.624Z,9.73
2023-04-01T14:50:42.060Z,9.75
2023-04-01T14:52:15.320Z,9.72
2023-04-01T14:53:57.572Z,9.68
2023-04-01T14:55:19.536Z,9.61
2023-04-01T14:56:43.606Z,9.58
2023-04-01T14:58:29.354Z,9.55
2023-04-01T15:00:03.399Z,9.58
2023-04-01T15:01:49.222Z,9.56
2023-04-01T15:03:19.059Z,9.58
2023-04-01T15:04:52.381Z,9.60
2023-04-01T15:06:37.345Z,9.62
2023-04-01T15:08:10.872Z,9.64
2023-04-01T15:09:46.392Z,9.67
2023-04-01T15:11:24.256Z,9.68
2023-04-01T15:12:55.633Z,9.69
2023-04-01T15:14:40.771Z,9.67
2023-04-01T15:16:14.864Z,9.64
2023-04-01T15:18:00.535Z,9.54
2023-04-01T15:19:37.478Z,9.47
2023-04-01T15:21:22.672Z,9.36
2023-04-01T15:23:16.230Z,9.27
2023-04-01T15:25:01.430Z,9.21
2023-04-01T15:26:50.194Z,9.15
2023-04-01T15:28:35.341Z,9.10
2023-04-01T15:30:20.567Z,9.06
2023-04-01T15:32:05.562Z,9.01
2023-04-01T15:34:00.724Z,8.92
2023-04-01T15:35:37.651Z,8.84
2023-04-01T15:37:22.827Z,8.78
2023-04-01T15:38:44.591Z,8.77
2023-04-01T15:40:08.837Z,8.74
2023-04-01T15:41:55.584Z,8.65
2023-04-01T15:43:28.776Z,8.71
2023-04-01T15:44:50.581Z,8.72
2023-04-01T15:46:45.772Z,8.68
2023-04-01T15:48:21.640Z,8.66
2023-04-01T15:49:57.647Z,8.64
2023-04-01T15:51:50.848Z,8.60
2023-04-01T15:53:31.590Z,8.59
2023-04-01T15:55:07.535Z,8.57
2023-04-01T15:56:50.673Z,8.56
2023-04-01T15:58:27.303Z,8.53
2023-04-01T16:00:00.897Z,8.52
2023-04-01T16:01:44.408Z,8.42
2023-04-01T16:03:29.888Z,8.38
2023-04-01T16:05:15.247Z,8.39
2023-04-01T16:06:51.237Z,8.32
2023-04-01T16:08:41.637Z,8.33
2023-04-01T16:10:22.586Z,8.30
2023-04-01T16:12:07.959Z,8.29
2023-04-01T16:13:52.966Z,8.25
2023-04-01T16:15:37.867Z,8.26
2023-04-01T16:17:23.181Z,8.28
2023-04-01T16:18:59.670Z,8.30
2023-04-01T16:20:35.842Z,8.30
2023-04-01T16:22:21.027Z,8.28
2023-04-01T16:23:56.377Z,8.26
2023-04-01T16:25:41.637Z,8.24
2023-04-01T16:27:17.510Z,8.20
2023-04-01T16:29:02.681Z,8.17
2023-04-01T16:30:38.021Z,8.14
2023-04-01T16:32:09.805Z,8.12
2023-04-01T16:33:45.279Z,8.11
2023-04-01T16:35:21.765Z,8.13
2023-04-01T16:36:57.464Z,8.11
2023-04-01T16:38:50.215Z,8.09
2023-04-01T16:40:26.674Z,8.06
2023-04-01T16:42:11.723Z,8.05
2023-04-01T16:43:57.741Z,8.06
2023-04-01T16:45:30.888Z,8.07
2023-04-01T16:46:52.685Z,8.08
2023-04-01T16:48:26.328Z,8.09
2023-04-01T16:49:50.468Z,8.13
2023-04-01T16:51:26.238Z,8.13
2023-04-01T16:53:07.193Z,8.12
2023-04-01T16:54:33.888Z,8.09
2023-04-01T16:56:16.677Z,8.07
2023-04-01T17:00:02.400Z,8.03
2023-04-01T17:01:56.344Z,8.01
2023-04-01T17:03:29.530Z,7.91
2023-04-01T17:05:14.593Z,7.94
2023-04-01T17:07:08.641Z,7.95
2023-04-01T17:08:40.125Z,7.94
2023-04-01T17:10:25.331Z,7.89
2023-04-01T17:11:47.112Z,7.91
2023-04-01T17:13:20.487Z,7.91
2023-04-01T17:14:53.781Z,7.91
2023-04-01T17:16:27.240Z,7.88
2023-04-01T17:18:12.311Z,7.87
2023-04-01T17:19:43.600Z,7.86
2023-04-01T17:21:20.242Z,7.86
2023-04-01T17:23:04.961Z,7.86
2023-04-01T17:24:27.037Z,7.85
2023-04-01T17:26:09.462Z,7.86
2023-04-01T17:27:35.069Z,7.83
2023-04-01T17:29:20.742Z,7.83
2023-04-01T17:31:06.163Z,7.84
2023-04-01T17:32:39.924Z,7.81
2023-04-01T17:34:25.188Z,7.78
2023-04-01T17:35:47.317Z,7.76
2023-04-01T17:37:23.485Z,7.74
2023-04-01T17:39:08.895Z,7.75
2023-04-01T17:40:42.691Z,7.75
2023-04-01T17:42:31.013Z,7.76
2023-04-01T17:44:16.277Z,7.75
2023-04-01T17:46:04.440Z,7.67
2023-04-01T17:47:28.113Z,7.75
2023-04-01T17:49:09.992Z,7.73
2023-04-01T17:50:55.694Z,7.69
2023-04-01T17:52:25.007Z,7.68
2023-04-01T17:53:48.826Z,7.66
2023-04-01T17:55:11.177Z,7.66
2023-04-01T17:56:53.768Z,7.63
2023-04-01T17:58:16.224Z,7.61
2023-04-01T17:59:40.738Z,7.59
2023-04-01T18:01:17.365Z,7.56
2023-04-01T18:02:58.136Z,7.53
2023-04-01T18:04:20.430Z,7.54
2023-04-01T18:06:02.604Z,7.56
2023-04-01T18:07:48.641Z,7.55
2023-04-01T18:09:34.121Z,7.55
2023-04-01T18:11:05.598Z,7.56
2023-04-01T18:12:27.530Z,7.58
2023-04-01T18:14:10.269Z,7.57
2023-04-01T18:15:55.742Z,7.58
2023-04-01T18:17:31.216Z,7.58
2023-04-01T18:19:16.126Z,7.58
2023-04-01T18:20:54.421Z,7.57
2023-04-01T18:22:48.694Z,7.57
2023-04-01T18:24:24.536Z,7.58
2023-04-01T18:26:00.839Z,7.66
2023-04-01T18:27:46.504Z,7.62
2023-04-01T18:29:41.734Z,7.63
2023-04-01T18:31:18.688Z,7.60
2023-04-01T18:32:59.673Z,7.57
2023-04-01T18:34:35.635Z,7.57
2023-04-01T18:36:11.534Z,7.58
2023-04-01T18:37:57.558Z,7.58
2023-04-01T18:39:30.830Z,7.60
2023-04-01T18:41:15.760Z,7.53
2023-04-01T18:42:51.569Z,7.50
2023-04-01T18:44:27.005Z,7.40
2023-04-01T18:46:11.933Z,7.46
2023-04-01T18:48:05.180Z,7.45
2023-04-01T18:49:59.608Z,7.47
2023-04-01T18:51:21.867Z,7.47
2023-04-01T18:52:53.213Z,7.47
2023-04-01T18:54:27.092Z,7.46
2023-04-01T18:55:48.726Z,7.43
2023-04-01T18:57:22.546Z,7.39
2023-04-01T18:59:08.343Z,7.35
2023-04-01T19:00:54.716Z,7.33
2023-04-01T19:02:40.578Z,7.32
2023-04-01T19:04:02.493Z,7.25
2023-04-01T19:05:47.885Z,7.33
2023-04-01T19:07:28.479Z,7.33
2023-04-01T19:09:02.038Z,7.33
2023-04-01T19:10:35.741Z,7.36
2023-04-01T19:12:08.998Z,7.37
2023-04-01T19:13:38.706Z,7.40
2023-04-01T19:15:14.254Z,7.40
2023-04-01T19:17:08.692Z,7.44
2023-04-01T19:18:53.674Z,7.42
2023-04-01T19:20:29.387Z,7.37
2023-04-01T19:22:00.656Z,7.34
2023-04-01T19:23:40.677Z,7.26
2023-04-01T19:25:25.832Z,7.30
2023-04-01T19:27:10.726Z,7.31
2023-04-01T19:29:04.704Z,7.29
2023-04-01T19:30:38.083Z,7.29
2023-04-01T19:32:23.400Z,7.26
2023-04-01T19:34:17.670Z,7.23
2023-04-01T19:35:59.620Z,7.23
2023-04-01T19:37:35.808Z,7.25
2023-04-01T19:39:21.008Z,7.28
2023-04-01T19:41:14.720Z,7.32
2023-04-01T19:42:46.461Z,7.35
2023-04-01T19:44:31.791Z,7.37
2023-04-01T19:46:16.988Z,7.36
2023-04-01T19:47:53.099Z,7.36
2023-04-01T19:49:44.267Z,7.32
2023-04-01T19:51:06.722Z,7.28
2023-04-01T19:53:00.707Z,7.27
2023-04-01T19:54:25.085Z,7.25
2023-04-01T19:55:54.092Z,7.22
2023-04-01T19:57:28.201Z,7.18
2023-04-01T19:58:49.991Z,7.15
2023-04-01T20:00:19.705Z,7.13
2023-04-01T20:02:00.605Z,7.10
2023-04-01T20:03:36.309Z,7.07
2023-04-01T20:05:11.548Z,7.03
2023-04-01T20:06:59.613Z,7.04
2023-04-01T20:08:21.785Z,7.06
2023-04-01T20:10:07.405Z,7.06
2023-04-01T20:11:48.306Z,7.07
2023-04-01T20:13:28.913Z,7.02
2023-04-01T20:15:04.963Z,6.96
2023-04-01T20:16:41.315Z,6.93
2023-04-01T20:18:10.755Z,6.92
2023-04-01T20:19:44.008Z,6.91
2023-04-01T20:21:29.188Z,6.90
2023-04-01T20:22:58.003Z,6.89
2023-04-01T20:24:33.346Z,6.88
2023-04-01T20:26:03.087Z,6.89
2023-04-01T20:27:47.970Z,6.91
2023-04-01T20:29:33.093Z,6.90
2023-04-01T20:31:18.564Z,6.88
2023-04-01T20:32:52.017Z,6.87
2023-04-01T20:34:25.578Z,6.87
2023-04-01T20:36:01.256Z,6.80
2023-04-01T20:37:32.993Z,6.76
2023-04-01T20:39:18.107Z,6.73
2023-04-01T20:41:10.302Z,6.68
2023-04-01T20:42:55.366Z,6.70
2023-04-01T20:44:31.508Z,6.65
2023-04-01T20:46:00.278Z,6.61
2023-04-01T20:47:22.750Z,6.59
2023-04-01T20:49:05.162Z,6.56
2023-04-01T20:50:27.218Z,6.54
2023-04-01T20:52:00.628Z,6.55
2023-04-01T20:53:41.234Z,6.58
2023-04-01T20:55:04.944Z,6.58
2023-04-01T20:56:54.557Z,6.60
2023-04-01T20:58:24.725Z,6.60
2023-04-01T21:00:00.355Z,6.58
2023-04-01T21:01:41.000Z,6.58
2023-04-01T21:03:16.514Z,6.60
2023-04-01T21:05:01.428Z,6.62
2023-04-01T21:06:35.244Z,6.65
2023-04-01T21:08:08.779Z,6.63
2023-04-01T21:09:44.498Z,6.63
2023-04-01T21:11:10.669Z,6.62
2023-04-01T21:12:35.055Z,6.57
2023-04-01T21:13:59.552Z,6.53
2023-04-01T21:15:24.141Z,6.53
2023-04-01T21:16:57.792Z,6.54
2023-04-01T21:18:19.948Z,6.55
2023-04-01T21:20:05.053Z,6.56
2023-04-01T21:21:38.611Z,6.59
2023-04-01T21:23:02.753Z,6.60
2023-04-01T21:24:29.032Z,6.59
2023-04-01T21:26:02.398Z,6.54
2023-04-01T21:27:47.620Z,6.50
2023-04-01T21:29:28.922Z,6.48
2023-04-01T21:31:06.979Z,6.46
2023-04-01T21:32:40.978Z,6.42
2023-04-01T21:34:26.316Z,6.38
2023-04-01T21:35:57.724Z,6.37
2023-04-01T21:37:31.408Z,6.37
2023-04-01T21:39:07.925Z,6.36
2023-04-01T21:41:01.757Z,6.34
2023-04-01T21:42:35.861Z,6.33
2023-04-01T21:44:20.999Z,6.32
2023-04-01T21:45:54.651Z,6.30
2023-04-01T21:47:28.552Z,6.30
2023-04-01T21:49:03.629Z,6.28
2023-04-01T21:50:45.481Z,6.24
2023-04-01T21:52:07.402Z,6.24
2023-04-01T21:53:29.401Z,6.23
2023-04-01T21:55:02.218Z,6.24
2023-04-01T21:56:26.195Z,6.22
2023-04-01T21:57:47.965Z,6.20
2023-04-01T21:59:21.687Z,6.23
2023-04-01T22:01:06.962Z,6.23
2023-04-01T22:02:36.256Z,6.18
2023-04-01T22:04:17.639Z,6.14
2023-04-01T22:05:48.981Z,6.15
2023-04-01T22:07:35.366Z,6.11
2023-04-01T22:09:20.518Z,6.10
2023-04-01T22:12:56.149Z,6.10